Latest Weather Observations for Lombadina

IDW60801

Issued at 4:35 pm WST Monday 21 April 2014 (issued every 30 minutes, with the page automatically refreshed every 10 minutes)

About weather observations | Map of weather stations | Latest weather observations for WA | Other Formats
Station Details ID: 503016 Name: LOMBADINA AIRSTRIP Lat: -16.52 Lon: 122.92 Height: 42.0 m
Data from the previous 72 hours. | See also: Recent months for locations in Western Australia
Date/Time
WST
Temp
°C
App
Temp
°C
Dew
Point
Rel
Hum
%
Delta-T
°C
Wind Press
QNH
hPa
Press
MSL
hPa
Rain
since 9 am
mm
Dir
 
Spd
km/h
Gust
km/h
Spd
kts
Gust
kts
21/04:30pm 30.8 34.6 22.7 62 5.5 NW 7 15 4 8 1010.2 - 0.0
21/04:00pm 31.1 34.4 21.8 57 6.3 WNW 7 13 4 7 1010.0 1009.7 0.0
21/03:30pm 31.4 34.3 21.8 56 6.5 WNW 9 15 5 8 1009.7 - 0.0
21/03:00pm 31.8 34.9 22.2 56 6.6 NW 9 17 5 9 1009.7 1009.4 0.0
21/02:30pm 31.6 34.4 22.3 57 6.3 NW 11 17 6 9 1009.7 - 0.0
21/02:00pm 31.6 34.1 22.4 58 6.3 NW 13 19 7 10 1009.8 1009.5 0.0
21/01:30pm 31.6 34.1 21.7 55 6.7 WNW 11 17 6 9 1010.0 - 0.0
21/01:00pm 32.9 35.8 21.8 52 7.6 WNW 9 17 5 9 1010.1 1009.8 0.0
21/12:30pm 32.9 36.3 21.6 51 7.7 NNW 6 11 3 6 1010.4 - 0.0
21/12:00pm 33.0 34.1 17.9 40 9.8 E 9 17 5 9 1010.7 1010.4 0.0
21/11:30am 32.7 35.7 20.1 47 8.4 NNE 4 11 2 6 1011.2 - 0.0
21/11:00am 32.9 35.3 19.7 45 8.7 E 6 11 3 6 1011.7 1011.4 0.0
21/10:30am 32.4 34.9 20.2 48 8.1 E 7 15 4 8 1012.0 - 0.0
21/10:00am 31.8 35.3 21.1 53 7.2 SE 4 11 2 6 1012.3 1012.0 0.0
21/09:30am 31.6 34.9 20.8 52 7.2 SSE 4 9 2 5 1012.5 - 0.0
21/09:00am 30.8 34.3 21.9 59 6.0 SSE 6 9 3 5 1012.5 1012.2 0.0
21/08:30am 29.6 32.9 21.4 61 5.5 SSE 6 9 3 5 1012.4 - 0.0
21/08:00am 28.4 31.9 21.8 67 4.4 SE 6 11 3 6 1012.5 1012.2 0.0
21/07:30am 27.1 30.8 22.3 75 3.2 SE 6 7 3 4 1012.4 - 0.0
21/07:00am 25.3 28.8 22.2 83 2.1 SE 7 13 4 7 1012.2 1011.9 0.0
21/06:30am 24.2 28.3 22.9 92 0.9 ESE 6 9 3 5 1012.0 - 0.0
21/06:00am 22.5 26.4 21.8 96 0.5 SSE 4 6 2 3 1011.9 1011.6 0.0
21/05:30am 22.9 27.3 22.1 95 0.5 SSE 2 6 1 3 1011.6 - 0.0
21/05:00am 22.2 26.6 21.3 95 0.6 CALM 0 2 0 1 1011.0 1010.7 0.0
21/04:30am 22.5 26.9 21.4 93 0.7 CALM 0 2 0 1 1010.6 - 0.0
21/04:00am 22.3 25.4 21.1 93 0.8 SW 6 9 3 5 1010.4 1010.1 0.0
21/03:30am 21.8 25.0 20.4 92 0.9 SSW 4 6 2 3 1010.3 - 0.0
21/03:00am 22.0 25.7 20.7 92 0.8 SSW 2 6 1 3 1010.2 1009.9 0.0
21/02:30am 22.1 25.3 20.6 91 1.0 SSW 4 6 2 3 1010.0 - 0.0
21/02:00am 22.0 25.6 20.5 91 1.0 SSW 2 2 1 1 1010.1 1009.8 0.0
21/01:30am 22.1 25.6 20.3 89 1.2 SW 2 4 1 2 1010.3 - 0.0
21/01:00am 23.2 27.1 20.3 84 1.9 CALM 0 2 0 1 1010.5 1010.2 0.0
21/12:30am 24.2 27.0 20.4 79 2.5 SSW 6 9 3 5 1010.4 - 0.0
21/12:00am 22.9 25.5 20.1 84 1.8 SSW 6 9 3 5 1010.4 1010.1 0.0
 
Date/Time
WST
Temp
°C
App
Temp
°C
Dew
Point
Rel
Hum
%
Delta-T
°C
Wind Press
QNH
hPa
Press
MSL
hPa
Rain
since 9 am
mm
Dir
 
Spd
km/h
Gust
km/h
Spd
kts
Gust
kts
20/11:30pm 23.3 25.7 19.6 80 2.4 WSW 6 7 3 4 1010.5 - 0.0
20/11:00pm 23.2 25.9 19.5 80 2.4 WSW 4 6 2 3 1010.7 1010.4 0.0
20/10:30pm 23.4 26.1 19.5 79 2.5 SW 4 7 2 4 1010.8 - 0.0
20/10:00pm 23.5 26.3 19.6 79 2.5 WSW 4 6 2 3 1010.8 1010.5 0.0
20/09:30pm 23.7 26.4 19.5 77 2.7 SW 4 7 2 4 1010.8 - 0.0
20/09:00pm 24.1 27.2 19.4 75 3.0 W 2 6 1 3 1011.0 1010.7 0.0
20/08:30pm 24.4 27.5 19.5 74 3.2 W 2 6 1 3 1011.0 - 0.0
20/08:00pm 25.2 28.2 20.0 73 3.4 WNW 4 6 2 3 1010.9 1010.6 0.0
20/07:30pm 24.9 27.7 19.7 73 3.4 WNW 4 7 2 4 1010.6 - 0.0
20/07:00pm 26.5 29.1 20.0 67 4.2 W 6 7 3 4 1010.3 1010.0 0.0
20/06:30pm 26.2 29.2 20.1 69 4.0 WNW 4 7 2 4 1010.1 - 0.0
20/06:00pm 26.0 29.6 20.5 71 3.6 W 2 6 1 3 1010.1 1009.8 0.0
20/05:30pm 28.4 31.6 20.4 62 5.3 W 4 6 2 3 1009.9 - 0.0
20/05:00pm 29.7 32.3 20.0 56 6.4 W 6 7 3 4 1009.8 1009.5 0.0
20/04:30pm 30.8 32.5 18.5 47 8.0 NW 7 13 4 7 1009.5 - 0.0
20/04:00pm 31.2 31.6 16.3 40 9.4 NW 9 13 5 7 1009.3 1009.0 0.0
20/03:30pm 31.7 31.0 13.1 32 11.1 NW 9 13 5 7 1009.3 - 0.0
20/03:00pm 32.4 32.4 15.3 35 10.6 NW 9 15 5 8 1009.2 1008.9 0.0
20/02:30pm 32.3 31.9 15.3 35 10.5 NW 11 17 6 9 1009.2 - 0.0
20/02:00pm 32.5 31.9 15.7 36 10.5 NNW 13 20 7 11 1009.1 1008.8 0.0
20/01:30pm 32.7 32.6 17.0 39 10.0 NW 13 20 7 11 1009.2 - 0.0
20/01:00pm 33.5 33.8 16.0 35 11.0 N 9 17 5 9 1009.4 1009.1 0.0
20/12:30pm 33.6 34.9 17.2 37 10.5 NNW 6 15 3 8 1009.7 - 0.0
20/12:00pm 32.2 35.0 20.5 50 7.8 ENE 6 11 3 6 1010.3 1010.0 0.0
20/11:30am 31.7 33.7 20.0 50 7.7 E 9 15 5 8 1010.6 - 0.0
20/11:00am 31.6 33.8 20.4 51 7.5 E 9 17 5 9 1011.0 1010.7 0.0
20/10:30am 31.4 33.5 20.1 51 7.5 ENE 9 15 5 8 1011.3 - 0.0
20/10:00am 30.4 32.2 18.8 50 7.5 ESE 7 13 4 7 1011.5 1011.2 0.0
20/09:30am 30.2 31.9 18.4 49 7.6 ESE 7 13 4 7 1011.7 - 0.0
20/09:00am 29.6 30.9 17.5 48 7.7 SE 7 15 4 8 1011.7 1011.4 0.0
20/08:30am 28.7 30.0 17.2 49 7.2 ESE 6 13 3 7 1011.4 - 0.0
20/08:00am 26.9 27.6 15.7 50 6.9 SSE 6 11 3 6 1011.4 1011.1 0.0
20/07:30am 26.0 27.6 17.0 57 5.6 S 4 7 2 4 1011.2 - 0.0
20/07:00am 23.3 26.1 19.7 80 2.3 SSE 4 6 2 3 1011.2 1010.9 0.0
20/06:30am 21.7 23.5 18.4 81 2.1 ESE 6 7 3 4 1010.9 - 0.0
20/06:00am 21.7 24.9 19.8 89 1.2 S 2 7 1 4 1010.6 1010.3 0.0
20/05:30am 21.7 24.9 19.8 89 1.2 SW 2 4 1 2 1010.5 - 0.0
20/05:00am 23.1 26.7 20.6 86 1.6 WSW 2 6 1 3 1010.4 1010.1 0.0
20/04:30am 22.1 25.4 20.7 92 0.9 WSW 4 6 2 3 1010.3 - 0.0
20/04:00am 22.6 26.3 21.4 93 0.8 SW 4 7 2 4 1010.1 1009.8 0.0
20/03:30am 22.6 26.4 21.6 94 0.7 SSW 4 7 2 4 1010.1 - 0.0
20/03:00am 23.0 26.9 21.8 93 0.8 SSW 4 6 2 3 1010.2 1009.9 0.0
20/02:30am 23.6 28.1 22.2 92 0.9 SW 2 4 1 2 1010.2 - 0.0
20/02:00am 24.2 28.1 22.6 91 1.1 SW 6 9 3 5 1010.2 1009.9 0.0
20/01:30am 24.2 28.4 22.4 90 1.2 SW 4 7 2 4 1010.3 - 0.0
20/01:00am 24.6 28.5 22.6 89 1.3 SSW 6 9 3 5 1010.4 1010.1 0.0
20/12:30am 24.5 28.4 22.5 89 1.3 SSW 6 7 3 4 1010.8 - 0.0
20/12:00am 24.6 28.5 22.5 88 1.4 SSW 6 7 3 4 1011.0 1010.7 0.0
 
Date/Time
WST
Temp
°C
App
Temp
°C
Dew
Point
Rel
Hum
%
Delta-T
°C
Wind Press
QNH
hPa
Press
MSL
hPa
Rain
since 9 am
mm
Dir
 
Spd
km/h
Gust
km/h
Spd
kts
Gust
kts
19/11:30pm 24.4 28.0 22.1 87 1.5 SSW 6 7 3 4 1011.1 - 0.0
19/11:00pm 24.9 28.6 22.3 85 1.7 SSW 6 7 3 4 1011.2 1010.9 0.0
19/10:30pm 24.4 27.9 21.9 86 1.7 SSW 6 9 3 5 1011.3 - 0.0
19/10:00pm 24.1 27.6 21.8 87 1.5 SW 6 9 3 5 1011.2 1010.9 0.0
19/09:30pm 24.1 28.1 21.4 85 1.8 SSW 2 4 1 2 1011.3 - 0.0
19/09:00pm 24.4 27.8 21.0 81 2.2 SW 4 7 2 4 1011.4 1011.1 0.0
19/08:30pm 25.9 29.6 21.4 76 3.0 NNW 4 6 2 3 1011.2 - 0.0
19/08:00pm 26.1 29.5 21.0 73 3.4 N 4 6 2 3 1011.2 1010.9 0.0
19/07:30pm 25.9 29.1 21.2 75 3.1 N 6 7 3 4 1010.8 - 0.0
19/07:00pm 26.1 29.3 20.4 71 3.7 N 4 6 2 3 1010.5 1010.2 0.0
19/06:30pm 27.5 30.8 20.7 66 4.5 N 4 7 2 4 1010.1 - 0.0
19/06:00pm 28.2 31.3 21.0 65 4.8 N 6 7 3 4 1009.8 1009.5 0.0
19/05:30pm 29.0 32.1 20.3 59 5.7 WNW 4 7 2 4 1009.6 - 0.0
19/05:00pm 32.5 35.8 19.9 47 8.4 SW 2 4 1 2 1009.5 1009.2 0.0
19/04:30pm 32.9 34.5 15.9 36 10.7 SSE 2 4 1 2 1009.4 - 0.0
19/04:00pm 33.3 33.6 14.4 32 11.6 E 6 9 3 5 1009.6 1009.3 0.0
19/03:30pm 33.5 33.5 14.1 31 11.9 E 7 11 4 6 1009.6 - 0.0
19/03:00pm 34.0 34.3 15.0 32 11.8 E 7 11 4 6 1009.4 1009.1 0.0
19/02:30pm 33.9 34.2 15.9 34 11.3 ESE 9 15 5 8 1009.2 - 0.0
19/02:00pm 34.1 34.0 14.9 31 11.9 E 9 19 5 10 1009.3 1009.0 0.0
19/01:30pm 33.9 33.5 14.2 30 12.1 E 9 17 5 9 1009.5 - 0.0
19/01:00pm 33.6 33.0 14.6 31 11.7 E 11 15 6 8 1009.8 1009.5 0.0
19/12:30pm 33.3 33.1 15.8 35 11.0 ESE 11 19 6 10 1010.2 - 0.0
19/12:00pm 33.5 33.6 16.5 36 10.8 ESE 11 19 6 10 1010.7 1010.4 0.0
19/11:30am 33.1 33.9 17.2 38 10.2 ESE 9 20 5 11 1011.1 - 0.0
19/11:00am 32.8 33.2 17.2 39 10.0 ESE 11 22 6 12 1011.6 1011.3 0.0
19/10:30am 32.6 32.6 17.2 39 9.8 ESE 13 28 7 15 1012.0 - 0.0
19/10:00am 32.0 33.6 19.9 48 8.0 ESE 11 20 6 11 1012.5 1012.2 0.0
19/09:30am 30.5 33.5 22.7 63 5.3 SE 11 20 6 11 1012.7 - 0.0
19/09:00am 30.5 32.8 22.0 60 5.8 SE 13 22 7 12 1012.7 1012.4 0.0
19/08:30am 29.6 31.7 21.0 60 5.7 SE 11 19 6 10 1012.6 - 0.0
19/08:00am 28.3 30.5 19.7 59 5.6 SE 7 15 4 8 1012.6 1012.3 0.0
19/07:30am 26.8 28.2 18.7 61 5.2 SE 9 15 5 8 1012.2 - 0.0
19/07:00am 25.6 26.9 17.5 61 5.1 SE 7 11 4 6 1012.1 1011.8 0.0
19/06:30am 24.5 25.2 16.2 60 5.1 SE 7 13 4 7 1011.9 - 0.0
19/06:00am 24.3 24.7 15.2 57 5.5 SE 7 13 4 7 1011.7 1011.4 0.0
19/05:30am 24.6 24.9 14.9 54 5.8 SSE 7 15 4 8 1011.5 - 0.0
19/05:00am 25.2 25.1 14.9 52 6.2 SSE 9 15 5 8 1011.2 1010.9 0.0
19/04:30am 25.5 25.5 15.2 53 6.2 SSE 9 15 5 8 1011.2 - 0.0
19/04:00am 24.6 25.4 16.4 60 5.0 SE 7 11 4 6 1011.2 1010.9 0.0
19/03:30am 24.5 25.0 16.5 61 4.9 SE 9 13 5 7 1011.3 - 0.0
19/03:00am 23.8 25.1 17.1 66 4.1 SE 6 9 3 5 1011.3 1011.0 0.0
19/02:30am 24.3 26.0 18.0 68 4.0 SE 6 7 3 4 1011.4 - 0.0
19/02:00am 22.0 24.2 18.4 80 2.3 S 4 6 2 3 1011.2 1010.9 0.0
19/01:30am 23.1 26.2 18.6 76 2.8 CALM 0 2 0 1 1011.4 - 0.0
19/01:00am 23.6 26.3 18.6 73 3.2 WSW 2 6 1 3 1011.8 1011.5 0.0
19/12:30am 24.0 25.7 18.0 69 3.8 SW 6 7 3 4 1011.8 - 0.0
19/12:00am 24.2 26.3 18.1 68 3.8 SW 4 7 2 4 1012.1 1011.8 0.0
 
Date/Time
WST
Temp
°C
App
Temp
°C
Dew
Point
Rel
Hum
%
Delta-T
°C
Wind Press
QNH
hPa
Press
MSL
hPa
Rain
since 9 am
mm
Dir
 
Spd
km/h
Gust
km/h
Spd
kts
Gust
kts
18/11:30pm 25.4 27.2 18.3 65 4.5 SW 6 9 3 5 1012.5 - 0.0
18/11:00pm 26.4 27.7 17.2 57 5.8 SW 6 7 3 4 1012.5 1012.2 0.0
18/10:30pm 26.1 28.0 16.7 56 5.8 WSW 2 6 1 3 1012.7 - 0.0
18/10:00pm 26.1 27.4 16.1 54 6.1 W 4 6 2 3 1012.9 1012.6 0.0
18/09:30pm 26.5 28.2 17.2 56 5.8 SW 4 4 2 2 1013.0 - 0.0
18/09:00pm 26.2 28.1 18.6 63 4.8 SSW 6 7 3 4 1013.0 1012.7 0.0
18/08:30pm 26.2 27.9 18.1 61 5.1 SSW 6 7 3 4 1012.8 - 0.0
18/08:00pm 25.4 28.3 19.0 67 4.1 SSW 2 6 1 3 1012.5 1012.2 0.0
18/07:30pm 25.4 28.0 18.3 65 4.5 SSW 2 4 1 2 1012.2 - 0.0
18/07:00pm 25.7 28.3 18.3 63 4.7 SW 2 4 1 2 1011.8 1011.5 0.0
18/06:30pm 26.3 29.3 18.4 61 5.0 CALM 0 2 0 1 1011.6 - 0.0
18/06:00pm 27.1 30.3 18.9 61 5.3 CALM 0 0 0 0 1011.4 1011.1 0.0
18/05:30pm 28.8 32.0 18.8 54 6.5 CALM 0 2 0 1 1011.1 - 0.0
18/05:00pm 32.0 34.0 17.0 40 9.5 SSE 2 4 1 2 1010.9 1010.6 0.0

Other Formats:

Comma delimited format used in spreadsheet applications
http://www.bom.gov.au/fwo/IDW60801/IDW60801.99206.axf

JavaScript Object Notation format (JSON) in row-major order
http://www.bom.gov.au/fwo/IDW60801/IDW60801.99206.json